createdAt,value
2017-11-20T00:00:52.536Z,12.20
2017-11-20T00:01:52.500Z,12.40
2017-11-20T00:02:52.509Z,15.30
2017-11-20T00:03:52.513Z,13.90
2017-11-20T00:04:52.518Z,17.90
2017-11-20T00:05:52.523Z,13.90
2017-11-20T00:06:52.531Z,10.50
2017-11-20T00:07:52.579Z,15.10
2017-11-20T00:08:52.545Z,14.00
2017-11-20T00:09:52.592Z,15.70
2017-11-20T00:10:52.552Z,14.10
2017-11-20T00:11:53.631Z,12.50
2017-11-20T00:12:52.568Z,11.20
2017-11-20T00:13:52.570Z,11.00
2017-11-20T00:14:52.572Z,16.80
2017-11-20T00:15:52.579Z,16.90
2017-11-20T00:16:52.590Z,11.70
2017-11-20T00:17:52.590Z,13.60
2017-11-20T00:18:52.596Z,13.20
2017-11-20T00:19:52.603Z,13.20
2017-11-20T00:20:52.610Z,14.60
2017-11-20T00:21:52.615Z,12.40
2017-11-20T00:22:52.624Z,8.90
2017-11-20T00:23:52.623Z,15.50
2017-11-20T00:24:52.640Z,12.50
2017-11-20T00:25:52.647Z,12.70
2017-11-20T00:26:52.661Z,14.30
2017-11-20T00:27:52.661Z,16.10
2017-11-20T00:28:52.663Z,13.00
2017-11-20T00:29:52.662Z,15.90
2017-11-20T00:30:52.669Z,14.60
2017-11-20T00:31:52.674Z,16.80
2017-11-20T00:32:52.790Z,15.90
2017-11-20T00:33:52.706Z,17.40
2017-11-20T00:34:52.689Z,19.80
2017-11-20T00:35:52.694Z,14.50
2017-11-20T00:36:52.703Z,18.60
2017-11-20T00:37:52.708Z,13.00
2017-11-20T00:38:52.719Z,19.30
2017-11-20T00:39:52.721Z,14.00
2017-11-20T00:40:52.725Z,13.50
2017-11-20T00:41:52.737Z,15.10
2017-11-20T00:42:52.736Z,10.60
2017-11-20T00:43:52.743Z,15.50
2017-11-20T00:44:52.748Z,14.70
2017-11-20T00:45:52.756Z,16.00
2017-11-20T00:46:52.784Z,15.00
2017-11-20T00:47:52.766Z,12.90
2017-11-20T00:48:52.797Z,13.00
2017-11-20T00:49:52.782Z,12.40
2017-11-20T00:50:52.785Z,16.60
2017-11-20T00:51:52.789Z,14.10
2017-11-20T00:52:52.809Z,14.20
2017-11-20T00:53:52.805Z,9.90
2017-11-20T00:54:52.805Z,13.50
2017-11-20T00:55:52.819Z,14.50
2017-11-20T00:56:52.816Z,16.10
2017-11-20T00:57:52.843Z,13.30
2017-11-20T00:58:52.837Z,13.90
2017-11-20T00:59:52.842Z,13.50
2017-11-20T01:00:52.846Z,11.80
2017-11-20T01:01:52.853Z,12.90
2017-11-20T01:02:52.860Z,15.20
2017-11-20T01:03:52.865Z,13.20
2017-11-20T01:04:52.868Z,12.90
2017-11-20T01:05:52.866Z,13.90
2017-11-20T01:06:53.915Z,14.20
2017-11-20T01:07:52.883Z,12.50
2017-11-20T01:08:52.905Z,16.20
2017-11-20T01:09:52.901Z,12.00
2017-11-20T01:10:52.899Z,14.60
2017-11-20T01:11:52.899Z,20.60
2017-11-20T01:12:52.917Z,13.90
2017-11-20T01:13:52.917Z,17.70
2017-11-20T01:14:52.929Z,17.30
2017-11-20T01:15:53.019Z,13.70
2017-11-20T01:16:52.935Z,16.40
2017-11-20T01:17:53.029Z,11.10
2017-11-20T01:18:52.944Z,18.20
2017-11-20T01:19:53.044Z,13.40
2017-11-20T01:20:52.957Z,14.00
2017-11-20T01:21:52.968Z,13.80
2017-11-20T01:22:52.967Z,13.90
2017-11-20T01:23:52.981Z,17.60
2017-11-20T01:24:52.984Z,12.70
2017-11-20T01:25:52.987Z,17.20
2017-11-20T01:26:52.996Z,16.70
2017-11-20T01:27:52.998Z,15.30
2017-11-20T01:28:53.003Z,15.70
2017-11-20T01:29:53.016Z,10.50
2017-11-20T01:30:53.026Z,14.40
2017-11-20T01:31:53.025Z,14.60
2017-11-20T01:32:53.030Z,13.70
2017-11-20T01:33:53.037Z,13.10
2017-11-20T01:34:53.043Z,13.50
2017-11-20T01:35:53.039Z,13.70
2017-11-20T01:36:53.050Z,11.70
2017-11-20T01:37:53.055Z,16.30
2017-11-20T01:38:53.060Z,13.60
2017-11-20T01:39:53.079Z,12.80
2017-11-20T01:40:53.076Z,15.30
2017-11-20T01:41:53.147Z,15.90
2017-11-20T01:42:53.087Z,16.90
2017-11-20T01:43:53.095Z,12.60
2017-11-20T01:44:53.095Z,18.70
2017-11-20T01:45:53.108Z,12.30
2017-11-20T01:46:53.097Z,13.70
2017-11-20T01:47:53.110Z,13.10
2017-11-20T01:48:53.118Z,13.40
2017-11-20T01:49:53.123Z,11.90
2017-11-20T01:50:53.133Z,18.40
2017-11-20T01:51:53.130Z,12.50
2017-11-20T01:52:53.142Z,12.50
2017-11-20T01:53:53.141Z,15.90
2017-11-20T01:54:53.155Z,12.00
2017-11-20T01:55:53.153Z,13.70
2017-11-20T01:56:53.161Z,14.50
2017-11-20T01:57:53.172Z,16.80
2017-11-20T01:58:53.182Z,18.10
2017-11-20T01:59:53.188Z,17.90
2017-11-20T02:00:53.187Z,13.80
2017-11-20T02:01:53.194Z,15.90
2017-11-20T02:02:53.196Z,16.50
2017-11-20T02:03:53.203Z,14.40
2017-11-20T02:04:53.209Z,18.90
2017-11-20T02:05:53.216Z,19.90
2017-11-20T02:06:53.218Z,22.10
2017-11-20T02:07:53.224Z,15.70
2017-11-20T02:08:55.358Z,15.20
2017-11-20T02:09:53.237Z,20.10
2017-11-20T02:10:53.312Z,16.70
2017-11-20T02:11:53.246Z,16.80
2017-11-20T02:13:04.280Z,20.30
2017-11-20T02:13:53.259Z,18.80
2017-11-20T02:14:54.359Z,17.60
2017-11-20T02:15:53.273Z,17.40
2017-11-20T02:16:53.348Z,15.90
2017-11-20T02:17:53.280Z,17.00
2017-11-20T02:18:53.366Z,13.10
2017-11-20T02:19:53.292Z,15.90
2017-11-20T02:20:54.402Z,14.70
2017-11-20T02:21:53.302Z,16.30
2017-11-20T02:22:53.390Z,22.70
2017-11-20T02:23:53.321Z,23.10
2017-11-20T02:24:53.406Z,19.60
2017-11-20T02:25:53.385Z,16.60
2017-11-20T02:26:53.418Z,20.60
2017-11-20T02:27:53.342Z,19.30
2017-11-20T02:28:53.430Z,17.20
2017-11-20T02:29:53.356Z,19.40
2017-11-20T02:30:53.357Z,16.90
2017-11-20T02:31:53.361Z,15.30
2017-11-20T02:32:53.380Z,14.00
2017-11-20T02:33:53.382Z,18.00
2017-11-20T02:34:53.380Z,24.20
2017-11-20T02:35:53.388Z,14.10
2017-11-20T02:36:53.396Z,19.10
2017-11-20T02:37:54.516Z,21.00
2017-11-20T02:38:53.401Z,21.90
2017-11-20T02:39:55.448Z,24.30
2017-11-20T02:40:53.416Z,19.70
2017-11-20T02:41:53.515Z,17.80
2017-11-20T02:42:53.419Z,17.40
2017-11-20T02:43:53.436Z,17.40
2017-11-20T02:44:53.439Z,18.00
2017-11-20T02:45:53.448Z,20.10
2017-11-20T02:46:55.506Z,16.50
2017-11-20T02:47:53.452Z,21.60
2017-11-20T02:48:54.491Z,23.80
2017-11-20T02:49:53.467Z,21.10
2017-11-20T02:50:59.334Z,19.50
2017-11-20T02:51:53.478Z,23.50
2017-11-20T02:52:59.336Z,20.70
2017-11-20T02:53:53.504Z,15.80
2017-11-20T02:54:53.606Z,20.40
2017-11-20T02:55:53.504Z,20.60
2017-11-20T02:57:04.366Z,22.00
2017-11-20T02:57:53.516Z,22.10
2017-11-20T02:58:53.537Z,16.10
2017-11-20T02:59:53.527Z,20.30
2017-11-20T03:00:54.574Z,16.40
2017-11-20T03:01:53.555Z,17.80
2017-11-20T03:02:53.565Z,17.30
2017-11-20T03:03:53.544Z,24.20
2017-11-20T03:04:54.602Z,28.40
2017-11-20T03:05:53.556Z,21.10
2017-11-20T03:06:55.641Z,14.90
2017-11-20T03:07:53.568Z,20.00
2017-11-20T03:08:53.733Z,18.80
2017-11-20T03:09:53.578Z,22.40
2017-11-20T03:10:53.582Z,17.10
2017-11-20T03:11:53.583Z,19.20
2017-11-20T03:12:53.593Z,21.00
2017-11-20T03:13:53.603Z,25.70
2017-11-20T03:14:53.605Z,19.70
2017-11-20T03:15:53.611Z,20.20
2017-11-20T03:16:53.619Z,23.60
2017-11-20T03:17:53.626Z,22.40
2017-11-20T03:18:53.633Z,18.50
2017-11-20T03:19:53.644Z,22.00
2017-11-20T03:20:53.638Z,24.60
2017-11-20T03:21:53.650Z,22.50
2017-11-20T03:22:53.648Z,22.50
2017-11-20T03:23:53.645Z,24.40
2017-11-20T03:24:53.661Z,25.90
2017-11-20T03:25:53.664Z,17.80
2017-11-20T03:26:53.679Z,19.00
2017-11-20T03:27:53.679Z,22.30
2017-11-20T03:28:53.681Z,23.90
2017-11-20T03:29:53.684Z,23.50
2017-11-20T03:30:53.700Z,24.80
2017-11-20T03:31:53.704Z,22.40
2017-11-20T03:32:53.706Z,22.10
2017-11-20T03:33:53.701Z,22.90
2017-11-20T03:34:53.711Z,23.40
2017-11-20T03:35:53.713Z,24.60
2017-11-20T03:36:53.729Z,21.80
2017-11-20T03:37:53.739Z,26.20
2017-11-20T03:38:53.734Z,21.00
2017-11-20T03:39:53.747Z,22.00
2017-11-20T03:40:53.747Z,22.40
2017-11-20T03:41:53.758Z,28.00
2017-11-20T03:42:53.759Z,22.90
2017-11-20T03:43:53.770Z,20.30
2017-11-20T03:44:53.775Z,23.10
2017-11-20T03:45:53.778Z,21.80
2017-11-20T03:46:53.784Z,21.20
2017-11-20T03:47:53.790Z,21.20
2017-11-20T03:48:53.800Z,19.90
2017-11-20T03:49:53.816Z,23.20
2017-11-20T03:50:53.816Z,22.00
2017-11-20T03:51:53.812Z,22.40
2017-11-20T03:52:53.819Z,20.40
2017-11-20T03:53:53.829Z,24.20
2017-11-20T03:54:53.828Z,19.70
2017-11-20T03:55:53.834Z,21.30
2017-11-20T03:56:53.835Z,23.80
2017-11-20T03:57:53.846Z,22.90
2017-11-20T03:58:53.850Z,21.10
2017-11-20T03:59:53.861Z,21.50
2017-11-20T04:00:53.858Z,26.30
2017-11-20T04:01:53.870Z,20.30
2017-11-20T04:02:53.876Z,21.10
2017-11-20T04:03:53.894Z,22.60
2017-11-20T04:04:53.884Z,17.90
2017-11-20T04:05:53.894Z,21.60
2017-11-20T04:06:53.903Z,21.40
2017-11-20T04:07:53.898Z,21.20
2017-11-20T04:08:53.904Z,15.20
2017-11-20T04:09:53.912Z,25.70
2017-11-20T04:10:53.920Z,22.40
2017-11-20T04:11:53.925Z,20.60
2017-11-20T04:12:53.934Z,19.60
2017-11-20T04:13:53.938Z,14.40
2017-11-20T04:14:53.935Z,22.00
2017-11-20T04:15:53.953Z,21.80
2017-11-20T04:16:53.952Z,18.50
2017-11-20T04:17:53.956Z,23.00
2017-11-20T04:18:53.962Z,19.50
2017-11-20T04:19:53.969Z,26.90
2017-11-20T04:20:53.973Z,22.60
2017-11-20T04:21:53.988Z,18.50
2017-11-20T04:22:53.987Z,18.40
2017-11-20T04:23:53.993Z,20.10
2017-11-20T04:24:53.999Z,21.90
2017-11-20T04:25:54.006Z,20.40
2017-11-20T04:26:55.098Z,24.40
2017-11-20T04:27:54.021Z,28.00
2017-11-20T04:28:54.081Z,17.90
2017-11-20T04:29:54.031Z,18.30
2017-11-20T04:30:54.095Z,19.60
2017-11-20T04:31:54.044Z,21.80
2017-11-20T04:32:54.042Z,19.20
2017-11-20T04:33:54.045Z,23.80
2017-11-20T04:34:54.048Z,19.80
2017-11-20T04:35:54.128Z,21.00
2017-11-20T04:36:54.060Z,18.70
2017-11-20T04:37:56.085Z,19.50
2017-11-20T04:38:54.072Z,22.00
2017-11-20T04:39:55.176Z,18.60
2017-11-20T04:40:54.086Z,17.90
2017-11-20T04:41:54.094Z,17.10
2017-11-20T04:42:54.181Z,13.80
2017-11-20T04:43:54.119Z,19.60
2017-11-20T04:44:55.212Z,18.90
2017-11-20T04:45:54.119Z,19.10
2017-11-20T04:46:54.205Z,20.70
2017-11-20T04:47:54.124Z,17.00
2017-11-20T04:48:54.217Z,21.00
2017-11-20T04:49:54.138Z,22.10
2017-11-20T04:50:54.234Z,17.50
2017-11-20T04:51:54.149Z,23.90
2017-11-20T04:52:59.880Z,16.10
2017-11-20T04:53:54.155Z,18.60
2017-11-20T04:54:54.162Z,20.40
2017-11-20T04:55:55.200Z,16.30
2017-11-20T04:56:54.175Z,17.40
2017-11-20T04:57:56.241Z,19.40
2017-11-20T04:58:54.190Z,20.70
2017-11-20T04:59:55.219Z,21.00
2017-11-20T05:00:54.200Z,18.40
2017-11-20T05:01:54.307Z,20.20
2017-11-20T05:02:54.213Z,22.60
2017-11-20T05:03:55.243Z,24.80
2017-11-20T05:04:54.228Z,18.70
2017-11-20T05:05:55.256Z,17.80
2017-11-20T05:06:54.232Z,19.20
2017-11-20T05:07:58.852Z,21.90
2017-11-20T05:08:54.241Z,19.10
2017-11-20T05:10:09.827Z,17.90
2017-11-20T05:10:54.262Z,19.40
2017-11-20T05:11:55.293Z,18.00
2017-11-20T05:12:54.264Z,20.30
2017-11-20T05:13:54.385Z,20.90
2017-11-20T05:14:54.274Z,16.80
2017-11-20T05:15:54.279Z,21.20
2017-11-20T05:16:54.288Z,16.60
2017-11-20T05:17:54.301Z,22.60
2017-11-20T05:18:54.299Z,20.10
2017-11-20T05:19:55.349Z,24.20
2017-11-20T05:20:54.318Z,24.10
2017-11-20T05:21:56.385Z,17.50
2017-11-20T05:22:54.322Z,20.90
2017-11-20T05:23:54.351Z,19.30
2017-11-20T05:24:54.325Z,21.60
2017-11-20T05:25:59.382Z,18.30
2017-11-20T05:26:54.348Z,20.80
2017-11-20T05:27:54.379Z,20.60
2017-11-20T05:28:54.351Z,22.80
2017-11-20T05:29:55.415Z,21.00
2017-11-20T05:30:54.361Z,20.60
2017-11-20T05:31:54.406Z,18.50
2017-11-20T05:32:54.373Z,23.20
2017-11-20T05:33:56.469Z,23.50
2017-11-20T05:34:54.391Z,20.10
2017-11-20T05:35:54.432Z,18.10
2017-11-20T05:36:54.388Z,22.20
2017-11-20T05:37:54.443Z,22.20
2017-11-20T05:38:54.409Z,20.10
2017-11-20T05:39:54.470Z,25.80
2017-11-20T05:40:54.412Z,17.80
2017-11-20T05:41:54.477Z,18.20
2017-11-20T05:42:54.428Z,21.20
2017-11-20T05:43:54.432Z,22.50
2017-11-20T05:44:54.488Z,21.50
2017-11-20T05:45:54.450Z,23.20
2017-11-20T05:46:54.508Z,21.80
2017-11-20T05:47:54.463Z,20.00
2017-11-20T05:48:54.528Z,22.90
2017-11-20T05:49:54.466Z,20.60
2017-11-20T05:50:54.539Z,17.40
2017-11-20T05:51:54.490Z,17.90
2017-11-20T05:52:54.587Z,18.70
2017-11-20T05:53:54.492Z,23.30
2017-11-20T05:54:54.561Z,19.60
2017-11-20T05:55:54.507Z,25.40
2017-11-20T05:56:54.591Z,22.80
2017-11-20T05:57:54.509Z,19.60
2017-11-20T05:58:54.587Z,20.50
2017-11-20T05:59:54.532Z,20.40
2017-11-20T06:00:54.603Z,21.80
2017-11-20T06:01:54.535Z,25.00
2017-11-20T06:02:54.622Z,22.20
2017-11-20T06:03:54.552Z,20.40
2017-11-20T06:04:54.635Z,19.70
2017-11-20T06:05:54.571Z,21.80
2017-11-20T06:06:54.650Z,23.30
2017-11-20T06:07:54.566Z,24.10
2017-11-20T06:08:54.650Z,20.60
2017-11-20T06:09:54.583Z,18.90
2017-11-20T06:10:54.661Z,20.00
2017-11-20T06:11:54.590Z,22.80
2017-11-20T06:12:54.645Z,17.30
2017-11-20T06:13:54.599Z,21.90
2017-11-20T06:14:54.651Z,23.90
2017-11-20T06:15:54.610Z,23.50
2017-11-20T06:16:54.674Z,19.40
2017-11-20T06:17:54.624Z,17.10
2017-11-20T06:18:54.686Z,19.70
2017-11-20T06:19:54.626Z,21.10
2017-11-20T06:20:54.706Z,20.50
2017-11-20T06:21:54.649Z,20.50
2017-11-20T06:22:54.729Z,20.20
2017-11-20T06:23:54.654Z,17.60
2017-11-20T06:25:00.374Z,21.70
2017-11-20T06:25:54.668Z,18.90
2017-11-20T06:26:54.671Z,16.40
2017-11-20T06:27:54.688Z,19.50
2017-11-20T06:28:55.792Z,19.60
2017-11-20T06:29:54.684Z,21.50
2017-11-20T06:31:00.309Z,22.40
2017-11-20T06:31:54.706Z,19.20
2017-11-20T06:32:54.794Z,19.00
2017-11-20T06:33:54.716Z,17.80
2017-11-20T06:34:54.797Z,19.30
2017-11-20T06:35:54.726Z,16.20
2017-11-20T06:36:54.817Z,20.60
2017-11-20T06:37:54.738Z,18.60
2017-11-20T06:38:54.832Z,17.10
2017-11-20T06:39:54.800Z,23.70
2017-11-20T06:40:54.846Z,16.50
2017-11-20T06:41:54.762Z,18.80
2017-11-20T06:42:54.762Z,16.50
2017-11-20T06:43:54.768Z,18.90
2017-11-20T06:44:54.872Z,17.90
2017-11-20T06:45:54.771Z,20.30
2017-11-20T06:46:54.879Z,16.60
2017-11-20T06:47:54.788Z,19.80
2017-11-20T06:48:54.899Z,18.90
2017-11-20T06:49:54.799Z,15.90
2017-11-20T06:50:54.916Z,22.60
2017-11-20T06:51:54.809Z,16.80
2017-11-20T06:52:54.872Z,17.50
2017-11-20T06:53:54.823Z,16.90
2017-11-20T06:55:01.898Z,13.40
2017-11-20T06:55:54.825Z,17.50
2017-11-20T06:56:54.947Z,17.50
2017-11-20T06:57:54.844Z,21.90
2017-11-20T06:58:54.963Z,19.10
2017-11-20T06:59:54.874Z,17.20
2017-11-20T07:00:54.864Z,18.20
2017-11-20T07:01:54.862Z,21.60
2017-11-20T07:02:54.936Z,16.90
2017-11-20T07:03:54.877Z,18.30
2017-11-20T07:04:54.941Z,15.20
2017-11-20T07:05:54.884Z,15.60
2017-11-20T07:06:54.962Z,17.30
2017-11-20T07:07:54.899Z,14.70
2017-11-20T07:08:56.038Z,17.70
2017-11-20T07:09:54.912Z,19.30
2017-11-20T07:10:54.988Z,15.80
2017-11-20T07:11:54.929Z,15.30
2017-11-20T07:13:09.851Z,23.40
2017-11-20T07:13:54.934Z,18.40
2017-11-20T07:14:56.039Z,18.20
2017-11-20T07:15:54.935Z,22.10
2017-11-20T07:16:54.948Z,17.00
2017-11-20T07:17:54.954Z,17.70
2017-11-20T07:18:55.044Z,17.80
2017-11-20T07:19:54.967Z,21.30
2017-11-20T07:20:56.089Z,19.40
2017-11-20T07:21:54.972Z,20.30
2017-11-20T07:22:56.102Z,17.10
2017-11-20T07:23:54.993Z,16.10
2017-11-20T07:24:56.011Z,22.40
2017-11-20T07:25:54.996Z,16.60
2017-11-20T07:26:56.025Z,18.40
2017-11-20T07:27:55.008Z,18.10
2017-11-20T07:28:57.070Z,13.90
2017-11-20T07:29:55.023Z,16.90
2017-11-20T07:30:55.062Z,20.90
2017-11-20T07:31:55.027Z,18.60
2017-11-20T07:32:55.090Z,17.90
2017-11-20T07:33:55.044Z,18.80
2017-11-20T07:34:55.103Z,17.90
2017-11-20T07:35:55.049Z,16.60
2017-11-20T07:36:55.105Z,18.40
2017-11-20T07:37:55.062Z,17.50
2017-11-20T07:38:55.115Z,17.30
2017-11-20T07:39:55.072Z,17.40
2017-11-20T07:40:55.152Z,19.90
2017-11-20T07:41:55.089Z,15.70
2017-11-20T07:42:55.142Z,17.90
2017-11-20T07:43:55.090Z,17.50
2017-11-20T07:44:55.103Z,19.70
2017-11-20T07:45:55.174Z,20.40
2017-11-20T07:46:55.108Z,19.50
2017-11-20T07:47:55.176Z,16.50
2017-11-20T07:48:55.122Z,15.70
2017-11-20T07:49:55.126Z,21.00
2017-11-20T07:50:55.134Z,19.00
2017-11-20T07:51:55.155Z,15.30
2017-11-20T07:52:55.144Z,19.00
2017-11-20T07:53:55.215Z,18.30
2017-11-20T07:54:55.153Z,19.00
2017-11-20T07:55:55.230Z,20.00
2017-11-20T07:56:55.170Z,20.90
2017-11-20T07:57:55.243Z,15.90
2017-11-20T07:58:55.174Z,16.80
2017-11-20T07:59:55.179Z,15.10
2017-11-20T08:00:55.194Z,18.70
2017-11-20T08:01:55.192Z,15.30
2017-11-20T08:02:55.197Z,15.10
2017-11-20T08:03:55.198Z,16.70
2017-11-20T08:04:55.206Z,18.10
2017-11-20T08:05:55.309Z,14.20
2017-11-20T08:06:55.219Z,14.40
2017-11-20T08:07:55.228Z,15.70
2017-11-20T08:08:55.527Z,17.50
2017-11-20T08:09:55.235Z,14.60
2017-11-20T08:10:55.258Z,15.90
2017-11-20T08:11:55.448Z,16.90
2017-11-20T08:12:55.273Z,16.20
2017-11-20T08:13:55.259Z,15.10
2017-11-20T08:14:55.265Z,14.50
2017-11-20T08:15:55.274Z,15.00
2017-11-20T08:16:55.274Z,13.00
2017-11-20T08:17:55.284Z,12.30
2017-11-20T08:18:55.287Z,13.20
2017-11-20T08:19:55.290Z,15.60
2017-11-20T08:20:55.296Z,14.40
2017-11-20T08:21:56.326Z,14.20
2017-11-20T08:22:55.309Z,12.00
2017-11-20T08:23:55.417Z,20.30
2017-11-20T08:24:55.321Z,17.60
2017-11-20T08:25:55.321Z,15.70
2017-11-20T08:26:55.326Z,12.90
2017-11-20T08:27:55.340Z,18.40
2017-11-20T08:28:55.337Z,14.90
2017-11-20T08:29:55.340Z,19.30
2017-11-20T08:30:55.349Z,12.20
2017-11-20T08:31:55.351Z,16.10
2017-11-20T08:32:55.358Z,17.50
2017-11-20T08:33:55.362Z,19.60
2017-11-20T08:34:55.365Z,17.10
2017-11-20T08:35:55.374Z,18.10
2017-11-20T08:36:55.386Z,20.60
2017-11-20T08:37:55.385Z,18.80
2017-11-20T08:38:55.390Z,19.20
2017-11-20T08:39:55.397Z,16.70
2017-11-20T08:40:55.401Z,19.90
2017-11-20T08:41:55.405Z,22.10
2017-11-20T08:42:55.472Z,18.70
2017-11-20T08:43:55.419Z,18.10
2017-11-20T08:44:55.424Z,17.40
2017-11-20T08:45:55.457Z,20.10
2017-11-20T08:46:55.438Z,15.40
2017-11-20T08:48:00.393Z,17.00
2017-11-20T08:48:55.455Z,15.80
2017-11-20T08:49:55.448Z,15.60
2017-11-20T08:50:55.465Z,17.10
2017-11-20T08:51:55.473Z,16.00
2017-11-20T08:52:55.467Z,15.80
2017-11-20T08:53:55.471Z,14.70
2017-11-20T08:54:55.478Z,15.10
2017-11-20T08:55:55.542Z,15.80
2017-11-20T08:56:55.490Z,17.30
2017-11-20T08:57:55.552Z,14.50
2017-11-20T08:58:55.504Z,15.20
2017-11-20T08:59:55.560Z,13.10
2017-11-20T09:00:55.520Z,13.20
2017-11-20T09:01:55.516Z,13.90
2017-11-20T09:02:55.531Z,15.70
2017-11-20T09:03:55.529Z,18.10
2017-11-20T09:04:55.532Z,16.30
2017-11-20T09:05:55.541Z,15.20
2017-11-20T09:06:55.545Z,15.90
2017-11-20T09:07:55.548Z,18.30
2017-11-20T09:08:55.561Z,19.40
2017-11-20T09:10:21.133Z,16.90
2017-11-20T09:10:55.573Z,15.80
2017-11-20T09:11:55.570Z,16.10
2017-11-20T09:12:55.577Z,18.90
2017-11-20T09:13:55.586Z,17.80
2017-11-20T09:14:55.585Z,20.10
2017-11-20T09:15:55.637Z,21.00
2017-11-20T09:16:55.611Z,19.60
2017-11-20T09:17:55.601Z,21.80
2017-11-20T09:18:55.610Z,16.50
2017-11-20T09:19:55.609Z,19.10
2017-11-20T09:20:55.620Z,19.80
2017-11-20T09:21:55.639Z,15.80
2017-11-20T09:22:55.638Z,17.80
2017-11-20T09:23:55.640Z,14.70
2017-11-20T09:24:55.646Z,15.90
2017-11-20T09:25:55.671Z,20.60
2017-11-20T09:26:55.647Z,13.60
2017-11-20T09:27:55.656Z,14.80
2017-11-20T09:28:55.663Z,15.80
2017-11-20T09:29:55.764Z,14.30
2017-11-20T09:30:55.674Z,13.30
2017-11-20T09:31:56.786Z,15.00
2017-11-20T09:32:55.683Z,13.80
2017-11-20T09:33:55.763Z,14.60
2017-11-20T09:34:55.689Z,13.50
2017-11-20T09:35:55.694Z,12.90
2017-11-20T09:37:01.425Z,13.50
2017-11-20T09:37:55.711Z,13.70
2017-11-20T09:38:57.832Z,16.30
2017-11-20T09:39:55.734Z,16.50
2017-11-20T09:40:55.727Z,12.90
2017-11-20T09:41:55.802Z,15.70
2017-11-20T09:42:55.742Z,15.80
2017-11-20T09:43:55.734Z,13.80
2017-11-20T09:45:01.352Z,16.80
2017-11-20T09:45:55.765Z,17.00
2017-11-20T09:46:56.864Z,12.70
2017-11-20T09:47:55.768Z,16.50
2017-11-20T09:48:57.796Z,15.80
2017-11-20T09:49:55.767Z,16.40
2017-11-20T09:50:57.817Z,15.00
2017-11-20T09:51:55.788Z,13.90
2017-11-20T09:52:55.798Z,15.50
2017-11-20T09:53:55.884Z,14.90
2017-11-20T09:54:55.814Z,16.40
2017-11-20T09:55:55.891Z,14.10
2017-11-20T09:56:55.820Z,17.00
2017-11-20T09:57:55.823Z,16.60
2017-11-20T09:58:55.813Z,16.70
2017-11-20T09:59:57.875Z,16.10
2017-11-20T10:00:55.830Z,15.90
2017-11-20T10:01:55.930Z,17.00
2017-11-20T10:02:55.848Z,16.40
2017-11-20T10:03:55.950Z,14.30
2017-11-20T10:04:55.854Z,18.40
2017-11-20T10:05:56.886Z,17.40
2017-11-20T10:06:55.868Z,18.10
2017-11-20T10:08:01.917Z,16.00
2017-11-20T10:08:55.881Z,15.80
2017-11-20T10:09:56.013Z,18.00
2017-11-20T10:10:55.886Z,14.00
2017-11-20T10:11:55.900Z,16.10
2017-11-20T10:12:55.901Z,14.60
2017-11-20T10:13:55.901Z,13.70
2017-11-20T10:14:55.912Z,14.00
2017-11-20T10:15:55.920Z,11.80
2017-11-20T10:16:55.919Z,12.70
2017-11-20T10:17:56.041Z,15.30
2017-11-20T10:18:55.920Z,9.90
2017-11-20T10:19:55.937Z,9.50
2017-11-20T10:20:55.945Z,9.90
2017-11-20T10:21:55.948Z,12.30
2017-11-20T10:22:55.953Z,12.80
2017-11-20T10:23:55.960Z,11.50
2017-11-20T10:24:55.966Z,12.30
2017-11-20T10:25:55.976Z,12.00
2017-11-20T10:26:55.986Z,11.20
2017-11-20T10:27:55.986Z,11.40
2017-11-20T10:28:55.989Z,13.30
2017-11-20T10:29:56.006Z,11.10
2017-11-20T10:30:55.991Z,10.50
2017-11-20T10:31:55.995Z,11.70
2017-11-20T10:32:56.002Z,12.60
2017-11-20T10:33:56.010Z,12.40
2017-11-20T10:34:56.019Z,13.50
2017-11-20T10:35:56.022Z,10.90
2017-11-20T10:36:56.028Z,14.50
2017-11-20T10:37:56.034Z,11.20
2017-11-20T10:38:56.047Z,11.80
2017-11-20T10:39:56.047Z,16.80
2017-11-20T10:40:56.048Z,14.20
2017-11-20T10:41:56.057Z,12.80
2017-11-20T10:42:56.066Z,16.40
2017-11-20T10:43:56.066Z,15.40
2017-11-20T10:44:56.072Z,15.00
2017-11-20T10:45:56.087Z,14.50
2017-11-20T10:46:56.089Z,12.40
2017-11-20T10:47:56.090Z,13.80
2017-11-20T10:48:56.094Z,11.20
2017-11-20T10:49:56.095Z,11.50
2017-11-20T10:50:56.100Z,11.90
2017-11-20T10:51:56.111Z,13.00
2017-11-20T10:52:56.113Z,14.30
2017-11-20T10:53:56.130Z,12.00
2017-11-20T10:54:56.128Z,10.40
2017-11-20T10:55:56.132Z,11.10
2017-11-20T10:56:56.134Z,11.80
2017-11-20T10:57:56.145Z,13.00
2017-11-20T10:58:56.145Z,10.90
2017-11-20T10:59:56.153Z,11.40
2017-11-20T11:00:56.157Z,10.50
2017-11-20T11:01:56.157Z,12.70
2017-11-20T11:02:56.172Z,11.20
2017-11-20T11:03:56.178Z,13.20
2017-11-20T11:04:56.180Z,13.40
2017-11-20T11:05:56.190Z,11.00
2017-11-20T11:06:56.199Z,12.30
2017-11-20T11:07:56.227Z,12.50
2017-11-20T11:08:56.200Z,11.90
2017-11-20T11:09:56.205Z,14.20
2017-11-20T11:10:56.207Z,11.10
2017-11-20T11:11:56.840Z,12.60
2017-11-20T11:12:56.262Z,13.90
2017-11-20T11:13:56.226Z,11.70
2017-11-20T11:14:56.264Z,15.50
2017-11-20T11:15:56.230Z,13.00
2017-11-20T11:16:56.245Z,12.90
2017-11-20T11:17:56.249Z,16.80
2017-11-20T11:18:56.248Z,16.80
2017-11-20T11:19:56.252Z,13.00
2017-11-20T11:20:56.261Z,15.40
2017-11-20T11:21:56.317Z,14.10
2017-11-20T11:22:56.271Z,13.10
2017-11-20T11:23:56.279Z,18.00
2017-11-20T11:24:56.286Z,15.90
2017-11-20T11:25:56.292Z,14.20
2017-11-20T11:26:56.295Z,12.70
2017-11-20T11:27:56.302Z,14.10
2017-11-20T11:28:56.317Z,15.40
2017-11-20T11:29:56.315Z,15.50
2017-11-20T11:30:56.322Z,13.40
2017-11-20T11:31:56.327Z,15.30
2017-11-20T11:32:56.334Z,14.60
2017-11-20T11:33:56.326Z,14.40
2017-11-20T11:34:56.348Z,12.90
2017-11-20T11:35:56.344Z,14.00
2017-11-20T11:36:56.358Z,12.90
2017-11-20T11:37:56.373Z,12.70
2017-11-20T11:38:56.359Z,12.20
2017-11-20T11:39:56.362Z,13.00
2017-11-20T11:40:56.375Z,15.80
2017-11-20T11:41:56.372Z,11.90
2017-11-20T11:42:56.404Z,9.30
2017-11-20T11:43:56.385Z,9.70
2017-11-20T11:44:56.389Z,13.80
2017-11-20T11:45:56.396Z,9.40
2017-11-20T11:46:56.407Z,12.40
2017-11-20T11:47:56.412Z,12.70
2017-11-20T11:48:56.417Z,10.50
2017-11-20T11:49:56.437Z,8.80
2017-11-20T11:50:56.429Z,10.40
2017-11-20T11:51:56.429Z,12.70
2017-11-20T11:52:56.436Z,10.40
2017-11-20T11:53:56.445Z,9.20
2017-11-20T11:54:56.459Z,9.80
2017-11-20T11:55:56.449Z,10.60
2017-11-20T11:56:56.574Z,10.20
2017-11-20T11:57:56.465Z,11.20
2017-11-20T11:58:56.470Z,14.30
2017-11-20T11:59:56.474Z,10.20
2017-11-20T12:00:56.478Z,8.00
2017-11-20T12:01:56.485Z,14.30
2017-11-20T12:02:56.508Z,12.10
2017-11-20T12:03:56.495Z,13.00
2017-11-20T12:04:56.504Z,9.40
2017-11-20T12:05:56.540Z,12.00
2017-11-20T12:06:56.528Z,10.50
2017-11-20T12:07:56.516Z,7.80
2017-11-20T12:08:56.519Z,9.50
2017-11-20T12:09:56.523Z,9.60
2017-11-20T12:10:56.531Z,10.80
2017-11-20T12:11:56.539Z,10.10
2017-11-20T12:12:56.543Z,9.10
2017-11-20T12:13:56.582Z,9.30
2017-11-20T12:14:56.551Z,9.10
2017-11-20T12:15:56.601Z,10.00
2017-11-20T12:16:56.565Z,8.00
2017-11-20T12:17:56.607Z,9.40
2017-11-20T12:18:56.573Z,10.10
2017-11-20T12:19:56.878Z,8.50
2017-11-20T12:20:56.585Z,7.70
2017-11-20T12:21:56.590Z,11.80
2017-11-20T12:22:56.650Z,8.60
2017-11-20T12:23:56.599Z,7.90
2017-11-20T12:24:56.612Z,7.70
2017-11-20T12:25:56.612Z,9.00
2017-11-20T12:26:56.620Z,8.70
2017-11-20T12:27:56.627Z,10.00
2017-11-20T12:28:58.729Z,10.70
2017-11-20T12:29:56.642Z,11.00
2017-11-20T12:30:57.715Z,8.20
2017-11-20T12:31:56.652Z,6.50
2017-11-20T12:32:58.765Z,9.60
2017-11-20T12:33:56.655Z,8.30
2017-11-20T12:34:58.761Z,9.00
2017-11-20T12:35:56.668Z,9.70
2017-11-20T12:37:01.443Z,10.40
2017-11-20T12:37:56.678Z,7.60
2017-11-20T12:38:57.777Z,7.50
2017-11-20T12:39:56.686Z,8.80
2017-11-20T12:40:56.753Z,11.60
2017-11-20T12:41:56.699Z,9.50
2017-11-20T12:42:56.699Z,9.90
2017-11-20T12:43:56.706Z,8.30
2017-11-20T12:44:58.831Z,6.90
2017-11-20T12:45:56.720Z,11.30
2017-11-20T12:46:56.725Z,11.80
2017-11-20T12:48:01.418Z,10.40
2017-11-20T12:48:56.732Z,7.50
2017-11-20T12:49:58.769Z,7.20
2017-11-20T12:50:56.744Z,9.10
2017-11-20T12:51:56.836Z,8.70
2017-11-20T12:52:56.750Z,8.70
2017-11-20T12:53:56.753Z,7.90
2017-11-20T12:54:56.763Z,8.60